Delta Virtual Airport Information Service

Vancouver International Airport

ICAO: CYVR Country: Canada
Latitude: 49.1939 Longitude: -123.184
Latest Arrival : DAL1084 (2A) (KMSP-CYVR) Latest Departure : FLE224 (1) (CYVR-CYYZ)


WX CaptureLIVE
Data provided by noaa.gov | Fetched at 09:34:45

METAR : CYVR 041400Z 34005KT 20SM FEW014 FEW260 18/15 A3011 RMK CU1CI1 CU TR CI TR SLP198 DENSITY ALT 200FT

TAF : CYVR 041138Z 0412/0518 32005KT P6SM FEW040 PROB30 0412/0415 1SM BR FM042000 28010KT P6SM SKC BECMG 0503/0505 10005KT FM050900 10008KT P6SM FEW008 RMK NXT FCST BY 041500Z


Runway Data for CYVR
Data provided by openaviationdata.com

Runway ID Mag Var Hdg Length Elevation Surface ILS Freq ILS Id ILS Slope
08L 19 81° 9918 ft 14 ft Concrete 110.55 ITL 3
08R 19 80° 11962 ft 14 ft Asphalt 109.5 IVR 3
12 19 122° 7290 ft 14 ft Asphalt 111.1 IMK 3
26L 19 260° 11962 ft 14 ft Asphalt 110.7 IFZ 3
26R 19 261° 9918 ft 14 ft Concrete 111.95 IRD 3
30 19 302° 7290 ft 14 ft Asphalt -- -- --

Vancouver International Airport, Canada
Use only for reference purposes



Not for navigational purposes.